createdAt,value
2022-11-04T00:00:48.660Z,5.40
2022-11-04T00:03:15.554Z,5.50
2022-11-04T00:05:42.452Z,5.60
2022-11-04T00:08:24.462Z,5.50
2022-11-04T00:11:19.701Z,5.60
2022-11-04T00:13:47.614Z,5.60
2022-11-04T00:16:34.286Z,5.40
2022-11-04T00:19:02.006Z,5.30
2022-11-04T00:21:48.435Z,5.30
2022-11-04T00:24:34.471Z,5.30
2022-11-04T00:27:20.232Z,5.10
2022-11-04T00:29:47.118Z,5.00
2022-11-04T00:32:32.857Z,5.10
2022-11-04T00:34:59.924Z,5.10
2022-11-04T00:37:26.849Z,5.10
2022-11-04T00:39:53.701Z,5.10
2022-11-04T00:42:20.600Z,5.10
2022-11-04T00:44:47.469Z,5.00
2022-11-04T00:47:14.353Z,5.10
2022-11-04T00:49:41.262Z,4.90
2022-11-04T00:52:08.147Z,4.90
2022-11-04T00:54:35.014Z,4.80
2022-11-04T00:57:02.172Z,4.90
2022-11-04T00:59:29.079Z,4.80
2022-11-04T01:01:56.750Z,4.80
2022-11-04T01:04:23.726Z,4.80
2022-11-04T01:06:50.577Z,4.90
2022-11-04T01:09:17.545Z,4.80
2022-11-04T01:11:44.457Z,4.70
2022-11-04T01:14:11.586Z,4.80
2022-11-04T01:16:38.874Z,4.90
2022-11-04T01:19:05.896Z,5.00
2022-11-04T01:21:32.880Z,5.00
2022-11-04T01:24:00.537Z,5.10
2022-11-04T01:26:29.571Z,5.00
2022-11-04T01:28:58.062Z,5.00
2022-11-04T01:31:30.516Z,5.00
2022-11-04T01:33:58.798Z,4.90
2022-11-04T01:36:26.602Z,4.90
2022-11-04T01:38:55.802Z,4.80
2022-11-04T01:41:28.792Z,4.80
2022-11-04T01:43:58.004Z,4.80
2022-11-04T01:46:31.351Z,4.80
2022-11-04T01:49:06.709Z,4.70
2022-11-04T01:51:37.853Z,4.80
2022-11-04T01:54:06.420Z,4.80
2022-11-04T01:56:33.803Z,4.80
2022-11-04T01:59:05.651Z,4.80
2022-11-04T02:01:32.796Z,4.80
2022-11-04T02:04:21.215Z,4.70
2022-11-04T02:06:49.818Z,4.70
2022-11-04T02:09:18.453Z,4.70
2022-11-04T02:12:03.666Z,4.70
2022-11-04T02:14:32.447Z,4.60
2022-11-04T02:17:19.556Z,4.60
2022-11-04T02:20:08.166Z,4.60
2022-11-04T02:22:53.331Z,4.60
2022-11-04T02:25:23.001Z,4.60
2022-11-04T02:28:02.012Z,4.60
2022-11-04T02:30:36.464Z,4.60
2022-11-04T02:33:15.256Z,4.60
2022-11-04T02:35:51.491Z,4.50
2022-11-04T02:38:45.644Z,4.50
2022-11-04T02:41:28.138Z,4.40
2022-11-04T02:43:57.808Z,4.40
2022-11-04T02:46:40.213Z,4.30
2022-11-04T02:49:16.238Z,4.30
2022-11-04T02:52:05.100Z,4.30
2022-11-04T02:55:03.077Z,4.20
2022-11-04T02:57:32.257Z,4.30
2022-11-04T03:00:09.570Z,4.30
2022-11-04T03:02:48.082Z,4.30
2022-11-04T03:05:20.418Z,4.20
2022-11-04T03:07:50.332Z,4.30
2022-11-04T03:10:30.401Z,4.20
2022-11-04T03:13:05.067Z,4.10
2022-11-04T03:15:35.402Z,4.10
2022-11-04T03:18:24.016Z,4.00
2022-11-04T03:20:53.130Z,4.00
2022-11-04T03:23:20.341Z,4.00
2022-11-04T03:25:49.530Z,4.10
2022-11-04T03:28:46.283Z,4.10
2022-11-04T03:31:27.598Z,4.10
2022-11-04T03:33:56.196Z,4.10
2022-11-04T03:36:24.173Z,4.10
2022-11-04T03:38:52.731Z,4.10
2022-11-04T03:41:49.615Z,4.10
2022-11-04T03:44:16.713Z,4.00
2022-11-04T03:46:43.641Z,4.00
2022-11-04T03:49:12.230Z,4.10
2022-11-04T03:51:39.233Z,4.10
2022-11-04T03:54:07.079Z,4.10
2022-11-04T03:56:47.016Z,4.20
2022-11-04T03:59:52.371Z,4.20
2022-11-04T04:02:43.022Z,4.20
2022-11-04T04:05:33.419Z,4.10
2022-11-04T04:08:19.476Z,4.20
2022-11-04T04:11:17.053Z,4.30
2022-11-04T04:14:08.745Z,4.20
2022-11-04T04:16:47.435Z,4.20
2022-11-04T04:19:20.837Z,4.10
2022-11-04T04:21:59.613Z,4.20
2022-11-04T04:24:51.131Z,4.10
2022-11-04T04:27:32.146Z,4.10
2022-11-04T04:30:06.681Z,4.10
2022-11-04T04:32:46.982Z,4.10
2022-11-04T04:35:32.791Z,4.10
2022-11-04T04:38:22.950Z,4.10
2022-11-04T04:41:18.193Z,4.00
2022-11-04T04:44:03.737Z,3.90
2022-11-04T04:46:32.269Z,3.90
2022-11-04T04:49:09.527Z,3.90
2022-11-04T04:51:40.547Z,3.80
2022-11-04T04:54:07.827Z,3.80
2022-11-04T04:56:34.785Z,3.70
2022-11-04T04:59:01.696Z,3.70
2022-11-04T05:01:28.761Z,3.60
2022-11-04T05:03:55.753Z,3.60
2022-11-04T05:06:22.686Z,3.60
2022-11-04T05:08:49.544Z,3.60
2022-11-04T05:11:16.413Z,3.60
2022-11-04T05:13:43.303Z,3.60
2022-11-04T05:16:11.577Z,3.70
2022-11-04T05:18:38.533Z,3.80
2022-11-04T05:21:11.647Z,3.90
2022-11-04T05:23:38.618Z,3.90
2022-11-04T05:26:05.860Z,3.90
2022-11-04T05:28:33.235Z,3.90
2022-11-04T05:31:04.468Z,3.90
2022-11-04T05:33:32.118Z,3.90
2022-11-04T05:36:13.891Z,3.80
2022-11-04T05:38:41.520Z,3.70
2022-11-04T05:41:10.762Z,3.70
2022-11-04T05:43:37.661Z,3.80
2022-11-04T05:46:05.030Z,3.70
2022-11-04T05:48:35.091Z,3.80
2022-11-04T05:51:04.801Z,3.80
2022-11-04T05:53:31.656Z,3.90
2022-11-04T05:55:58.517Z,3.90
2022-11-04T05:58:25.404Z,3.90
2022-11-04T06:00:52.255Z,3.80
2022-11-04T06:03:19.229Z,3.80
2022-11-04T06:05:46.168Z,3.80
2022-11-04T06:08:13.043Z,3.80
2022-11-04T06:10:39.906Z,3.80
2022-11-04T06:13:06.803Z,3.90
2022-11-04T06:15:33.724Z,3.80
2022-11-04T06:18:00.565Z,3.80
2022-11-04T06:20:27.476Z,3.80
2022-11-04T06:22:54.447Z,3.90
2022-11-04T06:25:21.355Z,3.90
2022-11-04T06:27:48.303Z,3.90
2022-11-04T06:30:15.269Z,3.80
2022-11-04T06:32:42.197Z,3.70
2022-11-04T06:35:09.343Z,3.70
2022-11-04T06:37:37.897Z,3.70
2022-11-04T06:40:05.276Z,3.70
2022-11-04T06:42:32.231Z,3.80
2022-11-04T06:44:59.122Z,3.90
2022-11-04T06:47:26.022Z,3.90
2022-11-04T06:49:52.937Z,4.00
2022-11-04T06:52:19.840Z,4.00
2022-11-04T06:54:47.967Z,4.00
2022-11-04T06:57:14.870Z,4.10
2022-11-04T06:59:41.749Z,4.10
2022-11-04T07:02:11.303Z,4.10
2022-11-04T07:04:38.348Z,4.00
2022-11-04T07:07:05.262Z,4.00
2022-11-04T07:09:32.213Z,4.00
2022-11-04T07:11:59.244Z,4.00
2022-11-04T07:14:26.365Z,4.00
2022-11-04T07:16:53.277Z,4.00
2022-11-04T07:19:20.236Z,4.10
2022-11-04T07:21:47.133Z,4.10
2022-11-04T07:24:14.055Z,4.10
2022-11-04T07:26:42.523Z,4.20
2022-11-04T07:29:11.244Z,4.20
2022-11-04T07:31:38.765Z,4.10
2022-11-04T07:34:06.071Z,4.10
2022-11-04T07:36:33.000Z,4.00
2022-11-04T07:39:01.069Z,4.10
2022-11-04T07:41:27.996Z,4.10
2022-11-04T07:43:55.058Z,4.20
2022-11-04T07:46:22.193Z,4.40
2022-11-04T07:48:49.193Z,4.60
2022-11-04T07:51:20.415Z,4.60
2022-11-04T07:53:47.554Z,4.60
2022-11-04T07:56:14.827Z,4.50
2022-11-04T07:58:42.249Z,4.40
2022-11-04T08:01:16.430Z,4.50
2022-11-04T08:03:43.536Z,4.60
2022-11-04T08:06:13.091Z,4.70
2022-11-04T08:08:40.246Z,4.80
2022-11-04T08:11:15.847Z,4.80
2022-11-04T08:13:44.841Z,4.80
2022-11-04T08:16:20.761Z,4.80
2022-11-04T08:18:49.673Z,4.70
2022-11-04T08:21:17.015Z,4.70
2022-11-04T08:23:44.527Z,4.80
2022-11-04T08:26:14.625Z,5.10
2022-11-04T08:28:41.846Z,5.30
2022-11-04T08:31:13.772Z,5.60
2022-11-04T08:33:41.848Z,5.70
2022-11-04T08:36:14.884Z,5.80
2022-11-04T08:38:42.173Z,5.90
2022-11-04T08:41:11.289Z,6.20
2022-11-04T08:43:38.501Z,6.50
2022-11-04T08:46:08.064Z,6.60
2022-11-04T08:48:36.806Z,7.20
2022-11-04T08:51:05.316Z,7.80
2022-11-04T08:53:32.411Z,8.30
2022-11-04T08:55:59.336Z,8.80
2022-11-04T08:58:26.205Z,9.10
2022-11-04T09:00:53.192Z,9.50
2022-11-04T09:03:20.199Z,9.80
2022-11-04T09:05:49.241Z,10.30
2022-11-04T09:08:17.647Z,10.70
2022-11-04T09:10:46.125Z,11.00
2022-11-04T09:13:13.800Z,11.40
2022-11-04T09:15:40.719Z,11.60
2022-11-04T09:18:07.699Z,11.50
2022-11-04T09:20:38.580Z,11.90
2022-11-04T09:23:06.227Z,12.10
2022-11-04T09:25:33.617Z,12.10
2022-11-04T09:28:01.017Z,12.30
2022-11-04T09:30:28.059Z,12.60
2022-11-04T09:32:54.989Z,12.90
2022-11-04T09:35:21.883Z,12.90
2022-11-04T09:37:50.565Z,13.10
2022-11-04T09:40:21.646Z,12.90
2022-11-04T09:43:12.051Z,12.90
2022-11-04T09:45:42.485Z,13.30
2022-11-04T09:48:18.504Z,13.60
2022-11-04T09:50:52.635Z,13.60
2022-11-04T09:53:26.681Z,13.10
2022-11-04T09:55:58.532Z,12.60
2022-11-04T09:58:25.474Z,11.70
2022-11-04T10:01:06.013Z,11.20
2022-11-04T10:04:09.159Z,10.90
2022-11-04T10:06:58.608Z,10.40
2022-11-04T10:09:53.540Z,9.90
2022-11-04T10:12:24.594Z,9.50
2022-11-04T10:15:10.312Z,9.60
2022-11-04T10:17:53.251Z,10.40
2022-11-04T10:20:44.014Z,10.90
2022-11-04T10:23:30.037Z,11.40
2022-11-04T10:26:34.250Z,11.70
2022-11-04T10:29:14.867Z,11.70
2022-11-04T10:31:44.967Z,11.70
2022-11-04T10:34:35.032Z,11.80
2022-11-04T10:37:02.959Z,11.90
2022-11-04T10:39:35.396Z,12.00
2022-11-04T10:42:03.984Z,12.00
2022-11-04T10:44:34.860Z,12.10
2022-11-04T10:47:28.773Z,12.30
2022-11-04T10:50:27.607Z,12.20
2022-11-04T10:53:16.331Z,12.30
2022-11-04T10:55:47.262Z,12.60
2022-11-04T10:58:23.184Z,12.70
2022-11-04T11:00:51.645Z,12.80
2022-11-04T11:03:26.723Z,13.00
2022-11-04T11:06:09.494Z,13.50
2022-11-04T11:08:37.525Z,13.40
2022-11-04T11:11:07.056Z,13.40
2022-11-04T11:13:46.612Z,13.20
2022-11-04T11:16:19.079Z,13.30
2022-11-04T11:19:08.510Z,13.50
2022-11-04T11:21:46.282Z,13.60
2022-11-04T11:24:30.812Z,13.50
2022-11-04T11:27:01.001Z,13.40
2022-11-04T11:29:32.314Z,13.60
2022-11-04T11:32:00.991Z,13.50
2022-11-04T11:34:38.881Z,13.50
2022-11-04T11:37:22.329Z,13.60
2022-11-04T11:39:49.260Z,13.60
2022-11-04T11:42:16.786Z,13.50
2022-11-04T11:44:55.777Z,13.50
2022-11-04T11:47:42.230Z,13.70
2022-11-04T11:50:19.176Z,13.80
2022-11-04T11:52:49.975Z,13.70
2022-11-04T11:55:23.774Z,13.70
2022-11-04T12:01:22.074Z,13.50
2022-11-04T12:09:59.819Z,14.30
2022-11-04T12:12:36.234Z,13.90
2022-11-04T12:15:18.903Z,14.10
2022-11-04T12:18:21.206Z,14.10
2022-11-04T12:20:59.489Z,14.00
2022-11-04T12:23:32.435Z,14.20
2022-11-04T12:26:21.366Z,14.20
2022-11-04T12:28:51.227Z,14.30
2022-11-04T12:31:48.751Z,14.50
2022-11-04T12:34:54.079Z,14.60
2022-11-04T12:37:40.086Z,14.50
2022-11-04T12:40:36.351Z,14.40
2022-11-04T12:43:26.438Z,14.60
2022-11-04T12:46:04.722Z,14.30
2022-11-04T12:48:54.338Z,14.40
2022-11-04T12:51:38.100Z,14.50
2022-11-04T12:54:21.265Z,14.50
2022-11-04T12:56:54.936Z,14.30
2022-11-04T12:59:43.669Z,14.40
2022-11-04T13:02:31.035Z,14.30
2022-11-04T13:05:21.148Z,14.10
2022-11-04T13:08:11.219Z,14.70
2022-11-04T13:11:03.089Z,14.60
2022-11-04T13:13:39.663Z,14.60
2022-11-04T13:16:11.330Z,14.30
2022-11-04T13:18:40.619Z,14.10
2022-11-04T13:21:16.776Z,14.10
2022-11-04T13:23:44.174Z,14.10
2022-11-04T13:26:15.097Z,14.30
2022-11-04T13:28:44.187Z,14.20
2022-11-04T13:31:31.698Z,14.20
2022-11-04T13:34:36.227Z,14.50
2022-11-04T13:37:18.481Z,14.60
2022-11-04T13:39:56.623Z,14.60
2022-11-04T13:42:32.446Z,14.40
2022-11-04T13:45:08.748Z,14.50
2022-11-04T13:47:44.230Z,14.50
2022-11-04T13:50:28.333Z,14.20
2022-11-04T13:52:55.303Z,14.40
2022-11-04T13:55:22.333Z,14.30
2022-11-04T13:57:53.657Z,14.10
2022-11-04T14:00:22.821Z,13.90
2022-11-04T14:02:52.159Z,14.10
2022-11-04T14:05:28.378Z,14.10
2022-11-04T14:08:01.608Z,13.90
2022-11-04T14:10:50.278Z,14.30
2022-11-04T14:13:37.606Z,14.30
2022-11-04T14:16:11.653Z,13.90
2022-11-04T14:18:42.552Z,14.00
2022-11-04T14:21:13.603Z,14.10
2022-11-04T14:24:00.809Z,13.50
2022-11-04T14:26:48.533Z,13.50
2022-11-04T14:29:24.328Z,13.90
2022-11-04T14:31:53.757Z,13.90
2022-11-04T14:34:31.087Z,13.80
2022-11-04T14:37:00.630Z,13.40
2022-11-04T14:39:36.866Z,13.70
2022-11-04T14:42:06.710Z,13.60
2022-11-04T14:44:50.401Z,13.50
2022-11-04T14:47:27.806Z,13.70
2022-11-04T14:50:07.649Z,13.60
2022-11-04T14:52:46.124Z,13.60
2022-11-04T14:55:25.688Z,13.80
2022-11-04T14:58:17.422Z,13.90
2022-11-04T15:00:50.125Z,13.80
2022-11-04T15:04:09.370Z,13.90
2022-11-04T15:06:34.708Z,13.60
2022-11-04T15:09:02.039Z,13.90
2022-11-04T15:11:48.794Z,13.80
2022-11-04T15:14:22.018Z,14.20
2022-11-04T15:16:54.494Z,14.10
2022-11-04T15:19:28.361Z,14.00
2022-11-04T15:21:55.618Z,13.60
2022-11-04T15:24:23.245Z,13.20
2022-11-04T15:26:52.954Z,12.60
2022-11-04T15:29:23.559Z,12.30
2022-11-04T15:32:04.884Z,12.40
2022-11-04T15:34:33.553Z,12.40
2022-11-04T15:37:04.389Z,11.80
2022-11-04T15:39:32.867Z,11.50
2022-11-04T15:42:23.595Z,11.10
2022-11-04T15:44:56.046Z,11.10
2022-11-04T15:47:24.599Z,10.90
2022-11-04T15:49:53.392Z,10.70
2022-11-04T15:52:26.634Z,10.60
2022-11-04T15:55:00.727Z,10.50
2022-11-04T15:57:55.209Z,10.30
2022-11-04T16:00:24.983Z,10.40
2022-11-04T16:02:53.771Z,10.20
2022-11-04T16:05:37.490Z,10.00
2022-11-04T16:08:22.998Z,9.90
2022-11-04T16:10:51.188Z,9.80
2022-11-04T16:13:18.127Z,9.70
2022-11-04T16:15:59.827Z,9.60
2022-11-04T16:18:39.527Z,9.50
2022-11-04T16:21:42.481Z,9.50
2022-11-04T16:24:25.169Z,9.40
2022-11-04T16:26:56.345Z,9.50
2022-11-04T16:29:27.452Z,9.60
2022-11-04T16:32:12.580Z,9.60
2022-11-04T16:34:39.537Z,9.50
2022-11-04T16:37:06.456Z,9.30
2022-11-04T16:39:33.466Z,9.40
2022-11-04T16:42:00.622Z,9.20
2022-11-04T16:44:27.735Z,9.20
2022-11-04T16:46:57.165Z,9.30
2022-11-04T16:49:24.317Z,9.30
2022-11-04T16:51:56.072Z,9.40
2022-11-04T16:54:24.773Z,9.60
2022-11-04T16:56:52.062Z,9.70
2022-11-04T16:59:19.024Z,9.80
2022-11-04T17:01:46.145Z,9.80
2022-11-04T17:04:13.495Z,9.80
2022-11-04T17:06:40.528Z,9.80
2022-11-04T17:09:23.938Z,9.70
2022-11-04T17:11:50.898Z,9.70
2022-11-04T17:14:17.864Z,9.60
2022-11-04T17:16:45.032Z,9.70
2022-11-04T17:19:16.637Z,9.70
2022-11-04T17:21:47.005Z,9.60
2022-11-04T17:24:14.331Z,9.60
2022-11-04T17:26:41.316Z,9.70
2022-11-04T17:29:10.753Z,9.40
2022-11-04T17:31:41.497Z,9.30
2022-11-04T17:34:09.849Z,9.30
2022-11-04T17:36:36.938Z,9.10
2022-11-04T17:39:04.492Z,9.10
2022-11-04T17:41:50.082Z,9.10
2022-11-04T17:44:17.003Z,9.10
2022-11-04T17:46:47.671Z,9.00
2022-11-04T17:49:22.829Z,9.00
2022-11-04T17:51:54.660Z,8.90
2022-11-04T17:54:23.373Z,8.90
2022-11-04T17:56:50.397Z,8.80
2022-11-04T17:59:17.342Z,8.70
2022-11-04T18:01:44.918Z,8.50
2022-11-04T18:04:20.365Z,8.30
2022-11-04T18:06:47.740Z,8.30
2022-11-04T18:09:17.670Z,8.30
2022-11-04T18:12:04.067Z,8.30
2022-11-04T18:14:33.732Z,8.30
2022-11-04T18:17:01.333Z,8.30
2022-11-04T18:19:28.625Z,8.30
2022-11-04T18:21:55.704Z,8.30
2022-11-04T18:24:24.452Z,8.20
2022-11-04T18:26:52.259Z,8.20
2022-11-04T18:29:19.449Z,8.30
2022-11-04T18:31:49.221Z,8.30
2022-11-04T18:34:18.889Z,8.20
2022-11-04T18:36:47.554Z,8.20
2022-11-04T18:39:17.061Z,8.20
2022-11-04T18:41:44.027Z,8.10
2022-11-04T18:44:18.684Z,8.10
2022-11-04T18:46:45.854Z,8.10
2022-11-04T18:49:13.431Z,8.00
2022-11-04T18:51:40.904Z,8.00
2022-11-04T18:54:10.382Z,8.10
2022-11-04T18:56:37.373Z,8.20
2022-11-04T18:59:04.839Z,8.20
2022-11-04T19:01:34.398Z,8.30
2022-11-04T19:04:01.694Z,8.20
2022-11-04T19:06:34.746Z,8.20
2022-11-04T19:09:32.026Z,8.20
2022-11-04T19:12:13.326Z,8.10
2022-11-04T19:14:40.472Z,8.10
2022-11-04T19:17:07.425Z,8.20
2022-11-04T19:19:34.361Z,8.10
2022-11-04T19:22:01.325Z,8.10
2022-11-04T19:24:28.723Z,8.10
2022-11-04T19:26:55.830Z,8.00
2022-11-04T19:29:22.732Z,8.00
2022-11-04T19:31:49.793Z,7.90
2022-11-04T19:34:16.719Z,7.80
2022-11-04T19:36:43.771Z,7.70
2022-11-04T19:39:10.691Z,7.60
2022-11-04T19:41:57.101Z,7.70
2022-11-04T19:44:24.017Z,7.80
2022-11-04T19:46:51.101Z,8.00
2022-11-04T19:49:18.546Z,8.00
2022-11-04T19:51:45.768Z,8.10
2022-11-04T19:54:13.324Z,8.10
2022-11-04T19:56:40.581Z,8.10
2022-11-04T19:59:09.331Z,8.20
2022-11-04T20:01:36.913Z,8.20
2022-11-04T20:04:04.735Z,8.10
2022-11-04T20:06:35.757Z,8.20
2022-11-04T20:09:05.438Z,8.10
2022-11-04T20:11:57.184Z,8.10
2022-11-04T20:14:24.873Z,8.10
2022-11-04T20:16:52.210Z,8.00
2022-11-04T20:19:22.672Z,8.00
2022-11-04T20:21:50.573Z,8.00
2022-11-04T20:24:17.935Z,8.00
2022-11-04T20:26:46.721Z,7.90
2022-11-04T20:29:16.238Z,7.90
2022-11-04T20:31:44.580Z,7.90
2022-11-04T20:34:12.591Z,7.90
2022-11-04T20:36:40.413Z,7.90
2022-11-04T20:39:14.366Z,7.90
2022-11-04T20:41:42.231Z,7.90
2022-11-04T20:44:13.740Z,7.80
2022-11-04T20:46:41.917Z,7.80
2022-11-04T20:49:09.066Z,7.80
2022-11-04T20:51:38.640Z,7.70
2022-11-04T20:54:07.206Z,7.70
2022-11-04T20:56:37.027Z,7.70
2022-11-04T20:59:05.138Z,7.70
2022-11-04T21:01:37.815Z,7.70
2022-11-04T21:04:06.676Z,7.60
2022-11-04T21:06:37.618Z,7.60
2022-11-04T21:09:06.604Z,7.50
2022-11-04T21:11:35.565Z,7.60
2022-11-04T21:14:04.361Z,7.50
2022-11-04T21:16:31.461Z,7.40
2022-11-04T21:18:58.398Z,7.30
2022-11-04T21:21:28.022Z,7.30
2022-11-04T21:24:03.590Z,7.30
2022-11-04T21:26:34.132Z,7.10
2022-11-04T21:29:04.031Z,7.20
2022-11-04T21:31:33.061Z,7.10
2022-11-04T21:34:00.250Z,7.10
2022-11-04T21:36:27.200Z,7.00
2022-11-04T21:38:54.562Z,7.00
2022-11-04T21:41:25.297Z,7.10
2022-11-04T21:44:00.114Z,7.00
2022-11-04T21:46:28.755Z,6.90
2022-11-04T21:48:56.374Z,6.80
2022-11-04T21:51:26.341Z,6.80
2022-11-04T21:53:53.256Z,6.80
2022-11-04T21:56:23.578Z,6.90
2022-11-04T21:58:52.494Z,6.90
2022-11-04T22:01:21.602Z,6.90
2022-11-04T22:03:54.652Z,6.90
2022-11-04T22:06:21.689Z,6.90
2022-11-04T22:08:53.862Z,6.80
2022-11-04T22:11:26.353Z,6.80
2022-11-04T22:13:54.989Z,6.70
2022-11-04T22:16:23.829Z,6.80
2022-11-04T22:18:57.409Z,6.70
2022-11-04T22:21:26.481Z,6.80
2022-11-04T22:23:54.032Z,6.80
2022-11-04T22:26:27.265Z,6.90
2022-11-04T22:28:54.862Z,7.00
2022-11-04T22:31:27.591Z,7.00
2022-11-04T22:33:54.991Z,7.00
2022-11-04T22:36:23.342Z,6.90
2022-11-04T22:38:51.061Z,7.00
2022-11-04T22:41:23.804Z,6.90
2022-11-04T22:43:50.986Z,7.00
2022-11-04T22:46:21.529Z,7.00
2022-11-04T22:48:48.485Z,7.00
2022-11-04T22:51:15.568Z,7.00
2022-11-04T22:53:42.928Z,7.00
2022-11-04T22:56:11.775Z,7.00
2022-11-04T22:58:38.917Z,7.00
2022-11-04T23:01:12.904Z,7.00
2022-11-04T23:03:41.038Z,6.90
2022-11-04T23:06:10.029Z,7.00
2022-11-04T23:08:38.782Z,6.80
2022-11-04T23:11:27.774Z,6.70
2022-11-04T23:14:20.622Z,6.70
2022-11-04T23:17:08.558Z,6.60
2022-11-04T23:19:39.368Z,6.60
2022-11-04T23:22:25.689Z,6.60
2022-11-04T23:25:11.414Z,6.50
2022-11-04T23:28:02.781Z,6.40
2022-11-04T23:30:32.935Z,6.30
2022-11-04T23:33:02.349Z,6.20
2022-11-04T23:35:53.516Z,6.20
2022-11-04T23:38:20.767Z,6.20
2022-11-04T23:41:11.029Z,6.20
2022-11-04T23:43:37.960Z,6.10
2022-11-04T23:46:23.763Z,6.20
2022-11-04T23:49:09.156Z,6.30
2022-11-04T23:51:54.955Z,6.30
2022-11-04T23:54:40.316Z,6.30
2022-11-04T23:57:34.349Z,6.40
